aviador You're here:

KHBI Decoded Metar

ASHEBORO MUNI in NC, USA
Report Time2017-06-27 22:05:00
UTC Time2017-06-27 22:35:43
Flight Rules vfr VFR
Wind350° at 05 kt
W.Decomp.*RWY 03: 4.2 kt HW 2.6 kt LCW
W.Rank350° ranks 12
Current wind is below 350° avg. (5.6)
Visibility9999 m
Phenomena:N/A
Clouds:N/A
Expected CloudBase > 4,800 ft AGL from Temp-Dew spread
CeilingNone
Temp25°C (ISA +11)
Dew Point13°C (47% RH)
AAT24.1°C
QNH1019 hPa
Density Alt1,985 ft
Elevation673 ft
Report Wrong Elevation
Raw Report
METAR KHBI 272205Z AUTO 35005KT 10SM CLR 25/13 A3008 RMK AO2 T02490126=

Extra information for KHBI:More info

Metar Taf Metar & Taf Last 4 Metars F.Rules Stats Wind Profile Meteogram Temp Stats Airport Information Weather charts Add Link Nearby VenuesMetar ALERT Operation Metar Decoded Social comments

AIRNAV info for KHBI